sensor_id;sensor_type;location;lat;lon;timestamp;pressure;altitude;pressure_sealevel;temperature;humidity
27613;BME280;15036;48.094;-1.690;2023-03-12T00:01:11;100786.59;;;16.66;62.94
27613;BME280;15036;48.094;-1.690;2023-03-12T00:03:37;100787.19;;;16.26;63.87
27613;BME280;15036;48.094;-1.690;2023-03-12T00:06:03;100789.91;;;16.56;63.33
27613;BME280;15036;48.094;-1.690;2023-03-12T00:08:28;100786.66;;;16.47;63.15
27613;BME280;15036;48.094;-1.690;2023-03-12T00:10:54;100785.94;;;16.52;63.14
27613;BME280;15036;48.094;-1.690;2023-03-12T00:13:19;100786.41;;;16.37;63.62
27613;BME280;15036;48.094;-1.690;2023-03-12T00:15:44;100795.13;;;16.05;64.03
27613;BME280;15036;48.094;-1.690;2023-03-12T00:18:10;100795.72;;;16.36;63.34
27613;BME280;15036;48.094;-1.690;2023-03-12T00:20:35;100795.25;;;16.39;62.84
27613;BME280;15036;48.094;-1.690;2023-03-12T00:23:00;100789.75;;;16.39;62.48
27613;BME280;15036;48.094;-1.690;2023-03-12T00:25:26;100798.38;;;16.43;62.50
27613;BME280;15036;48.094;-1.690;2023-03-12T00:27:51;100787.59;;;16.00;63.08
27613;BME280;15036;48.094;-1.690;2023-03-12T00:30:17;100789.56;;;16.23;62.49
27613;BME280;15036;48.094;-1.690;2023-03-12T00:32:42;100798.72;;;16.35;62.37
27613;BME280;15036;48.094;-1.690;2023-03-12T00:35:07;100798.06;;;16.51;61.81
27613;BME280;15036;48.094;-1.690;2023-03-12T00:37:33;100791.31;;;16.47;61.82
27613;BME280;15036;48.094;-1.690;2023-03-12T00:39:59;100794.28;;;16.64;61.22
27613;BME280;15036;48.094;-1.690;2023-03-12T00:42:30;100802.66;;;16.69;60.94
27613;BME280;15036;48.094;-1.690;2023-03-12T00:44:55;100803.25;;;16.29;62.09
27613;BME280;15036;48.094;-1.690;2023-03-12T00:47:21;100800.88;;;16.03;63.09
27613;BME280;15036;48.094;-1.690;2023-03-12T00:49:46;100805.94;;;15.77;63.30
27613;BME280;15036;48.094;-1.690;2023-03-12T00:52:12;100806.13;;;15.75;63.58
27613;BME280;15036;48.094;-1.690;2023-03-12T00:54:37;100803.59;;;15.92;63.13
27613;BME280;15036;48.094;-1.690;2023-03-12T00:57:03;100804.03;;;15.89;63.10
27613;BME280;15036;48.094;-1.690;2023-03-12T00:59:30;100791.44;;;15.81;63.16
27613;BME280;15036;48.094;-1.690;2023-03-12T01:01:55;100799.97;;;16.09;62.64
27613;BME280;15036;48.094;-1.690;2023-03-12T01:04:21;100794.41;;;15.98;63.11
27613;BME280;15036;48.094;-1.690;2023-03-12T01:06:47;100808.19;;;15.98;62.90
27613;BME280;15036;48.094;-1.690;2023-03-12T01:09:12;100810.00;;;16.04;62.65
27613;BME280;15036;48.094;-1.690;2023-03-12T01:11:38;100809.78;;;16.17;61.78
27613;BME280;15036;48.094;-1.690;2023-03-12T01:14:05;100798.63;;;16.41;61.19
27613;BME280;15036;48.094;-1.690;2023-03-12T01:16:31;100807.06;;;16.28;61.39
27613;BME280;15036;48.094;-1.690;2023-03-12T01:18:58;100791.59;;;16.16;61.83
27613;BME280;15036;48.094;-1.690;2023-03-12T01:21:25;100790.34;;;16.00;61.92
27613;BME280;15036;48.094;-1.690;2023-03-12T01:23:50;100797.88;;;15.75;62.47
27613;BME280;15036;48.094;-1.690;2023-03-12T01:26:16;100792.81;;;15.90;62.26
27613;BME280;15036;48.094;-1.690;2023-03-12T01:28:42;100804.19;;;15.94;62.28
27613;BME280;15036;48.094;-1.690;2023-03-12T01:31:10;100808.47;;;16.08;61.59
27613;BME280;15036;48.094;-1.690;2023-03-12T01:33:36;100816.75;;;15.90;61.86
27613;BME280;15036;48.094;-1.690;2023-03-12T01:36:02;100806.81;;;15.89;62.01
27613;BME280;15036;48.094;-1.690;2023-03-12T01:38:27;100811.28;;;16.01;61.68
27613;BME280;15036;48.094;-1.690;2023-03-12T01:40:52;100812.56;;;15.69;62.43
27613;BME280;15036;48.094;-1.690;2023-03-12T01:43:28;100815.13;;;15.52;62.74
27613;BME280;15036;48.094;-1.690;2023-03-12T01:46:28;100822.09;;;15.30;63.16
27613;BME280;15036;48.094;-1.690;2023-03-12T01:49:22;100825.50;;;15.50;63.05
27613;BME280;15036;48.094;-1.690;2023-03-12T01:51:55;100825.00;;;15.35;63.10
27613;BME280;15036;48.094;-1.690;2023-03-12T01:56:56;100813.16;;;15.17;62.45
27613;BME280;15036;48.094;-1.690;2023-03-12T01:59:25;100815.44;;;15.44;62.32
27613;BME280;15036;48.094;-1.690;2023-03-12T02:01:52;100818.56;;;15.23;62.66
27613;BME280;15036;48.094;-1.690;2023-03-12T02:04:21;100815.00;;;15.23;62.53
27613;BME280;15036;48.094;-1.690;2023-03-12T02:06:52;100811.72;;;15.32;62.01
27613;BME280;15036;48.094;-1.690;2023-03-12T02:09:20;100811.47;;;15.34;61.81
27613;BME280;15036;48.094;-1.690;2023-03-12T02:11:47;100812.56;;;15.51;61.18
27613;BME280;15036;48.094;-1.690;2023-03-12T02:14:12;100818.47;;;15.54;60.96
27613;BME280;15036;48.094;-1.690;2023-03-12T02:16:38;100819.50;;;15.35;61.40
27613;BME280;15036;48.094;-1.690;2023-03-12T02:19:07;100831.94;;;15.44;61.29
27613;BME280;15036;48.094;-1.690;2023-03-12T02:21:37;100834.81;;;15.68;60.59
27613;BME280;15036;48.094;-1.690;2023-03-12T02:26:53;100827.75;;;15.35;61.67
27613;BME280;15036;48.094;-1.690;2023-03-12T02:29:18;100827.78;;;15.53;61.43
27613;BME280;15036;48.094;-1.690;2023-03-12T02:31:49;100825.09;;;15.65;61.16
27613;BME280;15036;48.094;-1.690;2023-03-12T02:34:16;100827.78;;;15.72;60.86
27613;BME280;15036;48.094;-1.690;2023-03-12T02:36:41;100833.97;;;15.67;61.27
27613;BME280;15036;48.094;-1.690;2023-03-12T02:39:06;100828.16;;;15.39;62.11
27613;BME280;15036;48.094;-1.690;2023-03-12T02:41:37;100824.56;;;15.38;62.26
27613;BME280;15036;48.094;-1.690;2023-03-12T02:44:05;100837.44;;;15.44;61.62
27613;BME280;15036;48.094;-1.690;2023-03-12T02:46:35;100828.88;;;15.52;61.69
27613;BME280;15036;48.094;-1.690;2023-03-12T02:49:02;100833.38;;;15.47;61.41
27613;BME280;15036;48.094;-1.690;2023-03-12T02:51:28;100830.25;;;15.61;61.19
27613;BME280;15036;48.094;-1.690;2023-03-12T02:53:53;100835.97;;;15.17;62.16
27613;BME280;15036;48.094;-1.690;2023-03-12T02:56:21;100838.75;;;15.35;62.08
27613;BME280;15036;48.094;-1.690;2023-03-12T02:58:47;100834.78;;;15.31;62.17
27613;BME280;15036;48.094;-1.690;2023-03-12T03:01:14;100831.94;;;15.44;61.62
27613;BME280;15036;48.094;-1.690;2023-03-12T03:03:39;100838.50;;;15.43;61.66
27613;BME280;15036;48.094;-1.690;2023-03-12T03:06:05;100836.84;;;15.36;61.83
27613;BME280;15036;48.094;-1.690;2023-03-12T03:08:30;100831.53;;;15.59;61.03
27613;BME280;15036;48.094;-1.690;2023-03-12T03:10:55;100831.31;;;15.42;61.36
27613;BME280;15036;48.094;-1.690;2023-03-12T03:13:21;100824.09;;;15.41;61.58
27613;BME280;15036;48.094;-1.690;2023-03-12T03:15:46;100826.75;;;15.54;61.37
27613;BME280;15036;48.094;-1.690;2023-03-12T03:18:12;100817.97;;;15.39;61.41
27613;BME280;15036;48.094;-1.690;2023-03-12T03:20:37;100810.72;;;15.63;61.24
27613;BME280;15036;48.094;-1.690;2023-03-12T03:23:02;100831.16;;;15.55;61.50
27613;BME280;15036;48.094;-1.690;2023-03-12T03:25:28;100835.50;;;15.63;61.12
27613;BME280;15036;48.094;-1.690;2023-03-12T03:27:54;100844.38;;;15.65;61.46
27613;BME280;15036;48.094;-1.690;2023-03-12T03:30:20;100847.38;;;15.63;61.27
27613;BME280;15036;48.094;-1.690;2023-03-12T03:32:46;100855.91;;;15.55;61.71
27613;BME280;15036;48.094;-1.690;2023-03-12T03:35:11;100842.69;;;15.46;61.89
27613;BME280;15036;48.094;-1.690;2023-03-12T03:37:37;100836.91;;;15.29;62.24
27613;BME280;15036;48.094;-1.690;2023-03-12T03:40:03;100850.78;;;15.41;61.96
27613;BME280;15036;48.094;-1.690;2023-03-12T03:42:29;100860.66;;;15.24;62.95
27613;BME280;15036;48.094;-1.690;2023-03-12T03:44:55;100850.38;;;15.37;62.62
27613;BME280;15036;48.094;-1.690;2023-03-12T03:47:20;100848.63;;;15.25;62.69
27613;BME280;15036;48.094;-1.690;2023-03-12T03:49:45;100849.50;;;15.43;62.45
27613;BME280;15036;48.094;-1.690;2023-03-12T03:52:11;100851.28;;;15.31;62.68
27613;BME280;15036;48.094;-1.690;2023-03-12T03:54:36;100842.03;;;15.26;62.86
27613;BME280;15036;48.094;-1.690;2023-03-12T03:57:01;100846.84;;;15.12;63.41
27613;BME280;15036;48.094;-1.690;2023-03-12T03:59:27;100851.56;;;15.05;63.64
27613;BME280;15036;48.094;-1.690;2023-03-12T04:01:52;100866.03;;;14.94;64.45
27613;BME280;15036;48.094;-1.690;2023-03-12T04:04:18;100866.41;;;14.98;64.08
27613;BME280;15036;48.094;-1.690;2023-03-12T04:06:43;100869.41;;;14.96;64.71
27613;BME280;15036;48.094;-1.690;2023-03-12T04:09:09;100865.81;;;14.96;64.67
27613;BME280;15036;48.094;-1.690;2023-03-12T04:11:34;100869.69;;;14.88;64.96
27613;BME280;15036;48.094;-1.690;2023-03-12T04:14:00;100882.03;;;14.79;65.28
27613;BME280;15036;48.094;-1.690;2023-03-12T04:16:25;100876.63;;;14.91;64.99
27613;BME280;15036;48.094;-1.690;2023-03-12T04:18:51;100897.13;;;14.95;64.86
27613;BME280;15036;48.094;-1.690;2023-03-12T04:21:16;100894.69;;;14.80;65.24
27613;BME280;15036;48.094;-1.690;2023-03-12T04:23:42;100894.13;;;14.96;64.74
27613;BME280;15036;48.094;-1.690;2023-03-12T04:26:07;100883.00;;;14.91;64.94
27613;BME280;15036;48.094;-1.690;2023-03-12T04:28:33;100879.88;;;15.06;64.39
27613;BME280;15036;48.094;-1.690;2023-03-12T04:31:02;100881.28;;;14.90;64.60
27613;BME280;15036;48.094;-1.690;2023-03-12T04:33:28;100890.81;;;14.88;64.93
27613;BME280;15036;48.094;-1.690;2023-03-12T04:35:55;100885.13;;;14.89;64.82
27613;BME280;15036;48.094;-1.690;2023-03-12T04:38:22;100883.59;;;14.93;64.77
27613;BME280;15036;48.094;-1.690;2023-03-12T04:40:57;100889.31;;;14.92;64.40
27613;BME280;15036;48.094;-1.690;2023-03-12T04:43:24;100888.25;;;14.93;64.54
27613;BME280;15036;48.094;-1.690;2023-03-12T04:45:50;100883.06;;;14.78;64.99
27613;BME280;15036;48.094;-1.690;2023-03-12T04:48:15;100878.94;;;14.69;65.20
27613;BME280;15036;48.094;-1.690;2023-03-12T04:50:40;100878.44;;;14.78;64.99
27613;BME280;15036;48.094;-1.690;2023-03-12T04:53:06;100877.09;;;14.56;65.48
27613;BME280;15036;48.094;-1.690;2023-03-12T04:55:32;100882.19;;;14.59;65.32
27613;BME280;15036;48.094;-1.690;2023-03-12T04:57:57;100884.44;;;14.69;65.09
27613;BME280;15036;48.094;-1.690;2023-03-12T05:00:23;100888.06;;;14.63;65.09
27613;BME280;15036;48.094;-1.690;2023-03-12T05:02:48;100899.28;;;14.86;64.49
27613;BME280;15036;48.094;-1.690;2023-03-12T05:05:14;100889.94;;;14.69;65.01
27613;BME280;15036;48.094;-1.690;2023-03-12T05:07:39;100886.56;;;14.67;65.06
27613;BME280;15036;48.094;-1.690;2023-03-12T05:10:05;100903.13;;;14.54;65.19
27613;BME280;15036;48.094;-1.690;2023-03-12T05:12:30;100914.78;;;14.49;65.25
27613;BME280;15036;48.094;-1.690;2023-03-12T05:14:56;100907.38;;;14.50;65.44
27613;BME280;15036;48.094;-1.690;2023-03-12T05:17:21;100917.06;;;14.52;65.45
27613;BME280;15036;48.094;-1.690;2023-03-12T05:19:47;100902.56;;;14.45;65.52
27613;BME280;15036;48.094;-1.690;2023-03-12T05:22:12;100905.25;;;14.52;65.52
27613;BME280;15036;48.094;-1.690;2023-03-12T05:24:37;100909.56;;;14.35;66.08
27613;BME280;15036;48.094;-1.690;2023-03-12T05:27:03;100912.31;;;14.35;65.96
27613;BME280;15036;48.094;-1.690;2023-03-12T05:29:28;100912.69;;;14.45;65.62
27613;BME280;15036;48.094;-1.690;2023-03-12T05:31:59;100914.13;;;14.10;67.03
27613;BME280;15036;48.094;-1.690;2023-03-12T05:34:24;100922.63;;;13.88;67.54
27613;BME280;15036;48.094;-1.690;2023-03-12T05:36:49;100926.16;;;14.09;67.04
27613;BME280;15036;48.094;-1.690;2023-03-12T05:39:15;100919.31;;;14.31;66.41
27613;BME280;15036;48.094;-1.690;2023-03-12T05:41:40;100932.72;;;14.08;66.92
27613;BME280;15036;48.094;-1.690;2023-03-12T05:44:06;100928.72;;;14.04;67.11
27613;BME280;15036;48.094;-1.690;2023-03-12T05:46:32;100934.63;;;14.01;67.35
27613;BME280;15036;48.094;-1.690;2023-03-12T05:48:59;100942.66;;;14.02;67.77
27613;BME280;15036;48.094;-1.690;2023-03-12T05:51:24;100940.09;;;14.07;67.93
27613;BME280;15036;48.094;-1.690;2023-03-12T05:53:49;100932.63;;;13.76;68.47
27613;BME280;15036;48.094;-1.690;2023-03-12T05:56:16;100930.50;;;14.36;67.01
27613;BME280;15036;48.094;-1.690;2023-03-12T05:58:42;100934.13;;;14.30;67.10
27613;BME280;15036;48.094;-1.690;2023-03-12T06:01:17;100931.00;;;14.07;68.38
27613;BME280;15036;48.094;-1.690;2023-03-12T06:03:43;100933.97;;;14.05;68.28
27613;BME280;15036;48.094;-1.690;2023-03-12T06:06:09;100932.31;;;14.04;68.26
27613;BME280;15036;48.094;-1.690;2023-03-12T06:08:34;100934.47;;;13.89;69.30
27613;BME280;15036;48.094;-1.690;2023-03-12T06:11:00;100925.25;;;14.21;68.31
27613;BME280;15036;48.094;-1.690;2023-03-12T06:13:25;100916.09;;;14.40;67.60
27613;BME280;15036;48.094;-1.690;2023-03-12T06:15:52;100920.09;;;14.44;67.58
27613;BME280;15036;48.094;-1.690;2023-03-12T06:18:18;100915.53;;;14.63;66.78
27613;BME280;15036;48.094;-1.690;2023-03-12T06:20:44;100911.94;;;14.62;66.43
27613;BME280;15036;48.094;-1.690;2023-03-12T06:23:09;100906.72;;;14.54;66.90
27613;BME280;15036;48.094;-1.690;2023-03-12T06:25:34;100918.25;;;14.69;66.24
27613;BME280;15036;48.094;-1.690;2023-03-12T06:28:00;100908.50;;;14.73;65.92
27613;BME280;15036;48.094;-1.690;2023-03-12T06:30:25;100919.53;;;14.67;66.16
27613;BME280;15036;48.094;-1.690;2023-03-12T06:32:52;100914.69;;;14.62;65.91
27613;BME280;15036;48.094;-1.690;2023-03-12T06:35:19;100915.81;;;14.55;65.99
27613;BME280;15036;48.094;-1.690;2023-03-12T06:37:44;100904.72;;;14.68;65.41
27613;BME280;15036;48.094;-1.690;2023-03-12T06:40:10;100916.50;;;14.44;66.08
27613;BME280;15036;48.094;-1.690;2023-03-12T06:42:37;100917.06;;;14.52;65.75
27613;BME280;15036;48.094;-1.690;2023-03-12T06:45:03;100917.47;;;14.56;65.90
27613;BME280;15036;48.094;-1.690;2023-03-12T06:47:28;100918.31;;;14.56;65.71
27613;BME280;15036;48.094;-1.690;2023-03-12T06:49:54;100919.19;;;14.50;65.94
27613;BME280;15036;48.094;-1.690;2023-03-12T06:52:19;100913.31;;;14.47;65.86
27613;BME280;15036;48.094;-1.690;2023-03-12T06:54:45;100912.59;;;14.58;65.41
27613;BME280;15036;48.094;-1.690;2023-03-12T06:57:10;100898.97;;;14.45;66.05
27613;BME280;15036;48.094;-1.690;2023-03-12T06:59:35;100913.97;;;14.42;66.41
27613;BME280;15036;48.094;-1.690;2023-03-12T07:02:01;100912.94;;;14.37;66.45
27613;BME280;15036;48.094;-1.690;2023-03-12T07:04:26;100910.19;;;14.43;66.18
27613;BME280;15036;48.094;-1.690;2023-03-12T07:06:52;100924.16;;;14.35;66.28
27613;BME280;15036;48.094;-1.690;2023-03-12T07:09:17;100921.41;;;14.35;66.46
27613;BME280;15036;48.094;-1.690;2023-03-12T07:11:43;100935.47;;;14.52;66.14
27613;BME280;15036;48.094;-1.690;2023-03-12T07:14:08;100941.25;;;14.44;66.28
27613;BME280;15036;48.094;-1.690;2023-03-12T07:16:34;100935.16;;;14.29;66.62
27613;BME280;15036;48.094;-1.690;2023-03-12T07:19:00;100935.38;;;14.34;66.75
27613;BME280;15036;48.094;-1.690;2023-03-12T07:21:25;100937.63;;;14.43;66.19
27613;BME280;15036;48.094;-1.690;2023-03-12T07:23:51;100937.16;;;14.53;66.18
27613;BME280;15036;48.094;-1.690;2023-03-12T07:26:18;100941.88;;;14.46;66.35
27613;BME280;15036;48.094;-1.690;2023-03-12T07:28:43;100949.13;;;14.65;66.45
27613;BME280;15036;48.094;-1.690;2023-03-12T07:31:09;100948.78;;;14.55;66.92
27613;BME280;15036;48.094;-1.690;2023-03-12T07:33:34;100948.69;;;14.68;66.67
27613;BME280;15036;48.094;-1.690;2023-03-12T07:36:00;100946.84;;;14.93;66.10
27613;BME280;15036;48.094;-1.690;2023-03-12T07:38:25;100948.38;;;14.83;66.47
27613;BME280;15036;48.094;-1.690;2023-03-12T07:40:52;100949.66;;;15.11;65.93
27613;BME280;15036;48.094;-1.690;2023-03-12T07:43:19;100955.31;;;15.16;65.85
27613;BME280;15036;48.094;-1.690;2023-03-12T07:45:44;100955.03;;;15.24;65.94
27613;BME280;15036;48.094;-1.690;2023-03-12T07:48:09;100950.56;;;15.05;66.11
27613;BME280;15036;48.094;-1.690;2023-03-12T07:50:36;100962.91;;;15.21;65.91
27613;BME280;15036;48.094;-1.690;2023-03-12T07:53:01;100965.00;;;14.94;66.40
27613;BME280;15036;48.094;-1.690;2023-03-12T07:55:28;100965.03;;;15.43;65.34
27613;BME280;15036;48.094;-1.690;2023-03-12T07:57:53;100954.38;;;15.53;65.30
27613;BME280;15036;48.094;-1.690;2023-03-12T08:00:20;100952.13;;;15.44;65.23
27613;BME280;15036;48.094;-1.690;2023-03-12T08:02:46;100957.91;;;15.60;64.75
27613;BME280;15036;48.094;-1.690;2023-03-12T08:05:11;100966.50;;;15.71;64.68
27613;BME280;15036;48.094;-1.690;2023-03-12T08:07:37;100956.78;;;15.68;64.78
27613;BME280;15036;48.094;-1.690;2023-03-12T08:10:04;100950.38;;;15.92;63.72
27613;BME280;15036;48.094;-1.690;2023-03-12T08:12:30;100937.41;;;15.93;64.13
27613;BME280;15036;48.094;-1.690;2023-03-12T08:14:55;100943.03;;;16.04;63.53
27613;BME280;15036;48.094;-1.690;2023-03-12T08:17:21;100938.03;;;16.13;63.70
27613;BME280;15036;48.094;-1.690;2023-03-12T08:19:47;100936.13;;;16.13;63.23
27613;BME280;15036;48.094;-1.690;2023-03-12T08:22:12;100945.66;;;16.29;63.19
27613;BME280;15036;48.094;-1.690;2023-03-12T08:24:37;100955.34;;;16.20;62.97
27613;BME280;15036;48.094;-1.690;2023-03-12T08:27:03;100950.81;;;16.25;63.04
27613;BME280;15036;48.094;-1.690;2023-03-12T08:29:28;100961.06;;;16.18;63.42
27613;BME280;15036;48.094;-1.690;2023-03-12T08:31:54;100957.72;;;16.46;62.76
27613;BME280;15036;48.094;-1.690;2023-03-12T08:34:20;100955.44;;;16.43;62.80
27613;BME280;15036;48.094;-1.690;2023-03-12T08:36:45;100957.72;;;16.46;62.24
27613;BME280;15036;48.094;-1.690;2023-03-12T08:39:10;100961.72;;;16.50;62.36
27613;BME280;15036;48.094;-1.690;2023-03-12T08:41:36;100969.34;;;16.48;62.22
27613;BME280;15036;48.094;-1.690;2023-03-12T08:44:02;100965.94;;;16.53;62.17
27613;BME280;15036;48.094;-1.690;2023-03-12T08:46:28;100972.13;;;16.48;62.27
27613;BME280;15036;48.094;-1.690;2023-03-12T08:48:53;100971.69;;;16.51;62.30
27613;BME280;15036;48.094;-1.690;2023-03-12T08:51:19;100973.91;;;16.61;61.91
27613;BME280;15036;48.094;-1.690;2023-03-12T08:53:44;100980.88;;;16.63;61.85
27613;BME280;15036;48.094;-1.690;2023-03-12T08:56:10;100992.88;;;16.69;62.17
27613;BME280;15036;48.094;-1.690;2023-03-12T08:58:35;100980.38;;;16.66;62.00
27613;BME280;15036;48.094;-1.690;2023-03-12T09:01:01;100986.09;;;16.83;61.86
27613;BME280;15036;48.094;-1.690;2023-03-12T09:03:26;100983.03;;;17.02;61.73
27613;BME280;15036;48.094;-1.690;2023-03-12T09:06:11;100983.66;;;17.04;61.30
27613;BME280;15036;48.094;-1.690;2023-03-12T09:08:43;100980.88;;;17.04;60.64
27613;BME280;15036;48.094;-1.690;2023-03-12T09:11:10;100971.16;;;17.02;60.83
27613;BME280;15036;48.094;-1.690;2023-03-12T09:13:36;100974.25;;;17.35;60.56
27613;BME280;15036;48.094;-1.690;2023-03-12T09:16:02;100971.88;;;17.62;59.83
27613;BME280;15036;48.094;-1.690;2023-03-12T09:18:28;100972.22;;;17.65;59.37
27613;BME280;15036;48.094;-1.690;2023-03-12T09:20:54;100972.25;;;17.88;58.50
27613;BME280;15036;48.094;-1.690;2023-03-12T09:23:19;100970.81;;;17.63;58.23
27613;BME280;15036;48.094;-1.690;2023-03-12T09:25:45;100981.13;;;17.90;58.38
27613;BME280;15036;48.094;-1.690;2023-03-12T09:28:11;100985.06;;;17.83;58.00
27613;BME280;15036;48.094;-1.690;2023-03-12T09:30:37;100975.84;;;18.00;57.71
27613;BME280;15036;48.094;-1.690;2023-03-12T09:33:02;100984.13;;;17.66;57.74
27613;BME280;15036;48.094;-1.690;2023-03-12T09:35:28;100971.97;;;17.44;58.29
27613;BME280;15036;48.094;-1.690;2023-03-12T09:37:55;100973.59;;;17.63;57.23
27613;BME280;15036;48.094;-1.690;2023-03-12T09:40:23;100967.91;;;17.92;56.73
27613;BME280;15036;48.094;-1.690;2023-03-12T09:42:57;100970.91;;;17.91;56.61
27613;BME280;15036;48.094;-1.690;2023-03-12T09:45:25;100973.78;;;17.96;56.82
27613;BME280;15036;48.094;-1.690;2023-03-12T09:47:53;100968.28;;;17.96;56.60
27613;BME280;15036;48.094;-1.690;2023-03-12T09:50:29;100960.31;;;17.30;56.77
27613;BME280;15036;48.094;-1.690;2023-03-12T09:53:00;100962.28;;;17.64;56.29
27613;BME280;15036;48.094;-1.690;2023-03-12T09:55:31;100959.28;;;17.66;56.40
27613;BME280;15036;48.094;-1.690;2023-03-12T09:57:59;100957.00;;;17.86;55.40
27613;BME280;15036;48.094;-1.690;2023-03-12T10:00:33;100964.19;;;17.98;55.52
27613;BME280;15036;48.094;-1.690;2023-03-12T10:03:09;100950.91;;;18.24;54.85
27613;BME280;15036;48.094;-1.690;2023-03-12T10:08:45;100958.00;;;18.19;55.58
27613;BME280;15036;48.094;-1.690;2023-03-12T10:13:58;100959.28;;;18.29;54.65
27613;BME280;15036;48.094;-1.690;2023-03-12T10:22:36;100956.34;;;18.07;55.30
27613;BME280;15036;48.094;-1.690;2023-03-12T10:27:32;100957.50;;;18.46;54.80
27613;BME280;15036;48.094;-1.690;2023-03-12T10:30:00;100946.63;;;18.56;53.94
27613;BME280;15036;48.094;-1.690;2023-03-12T10:35:13;100944.16;;;18.31;54.45
27613;BME280;15036;48.094;-1.690;2023-03-12T10:37:42;100945.19;;;18.53;54.30
27613;BME280;15036;48.094;-1.690;2023-03-12T10:40:16;100941.84;;;18.40;54.56
27613;BME280;15036;48.094;-1.690;2023-03-12T10:42:42;100948.19;;;18.40;54.34
27613;BME280;15036;48.094;-1.690;2023-03-12T10:47:40;100936.50;;;18.61;54.41
27613;BME280;15036;48.094;-1.690;2023-03-12T10:50:19;100928.78;;;18.91;53.95
27613;BME280;15036;48.094;-1.690;2023-03-12T10:52:48;100926.91;;;18.80;54.03
27613;BME280;15036;48.094;-1.690;2023-03-12T10:55:26;100922.81;;;18.99;53.58
27613;BME280;15036;48.094;-1.690;2023-03-12T10:57:53;100921.63;;;18.79;54.04
27613;BME280;15036;48.094;-1.690;2023-03-12T11:00:21;100917.94;;;19.35;53.04
27613;BME280;15036;48.094;-1.690;2023-03-12T11:02:56;100911.13;;;19.42;52.38
27613;BME280;15036;48.094;-1.690;2023-03-12T11:05:29;100911.97;;;19.81;51.80
27613;BME280;15036;48.094;-1.690;2023-03-12T11:07:55;100917.28;;;19.82;52.03
27613;BME280;15036;48.094;-1.690;2023-03-12T11:10:26;100911.00;;;19.54;51.99
27613;BME280;15036;48.094;-1.690;2023-03-12T11:13:08;100899.94;;;20.14;50.38
27613;BME280;15036;48.094;-1.690;2023-03-12T11:15:45;100899.56;;;20.27;49.58
27613;BME280;15036;48.094;-1.690;2023-03-12T11:20:41;100883.09;;;19.99;50.07
27613;BME280;15036;48.094;-1.690;2023-03-12T11:23:16;100890.47;;;20.31;49.89
27613;BME280;15036;48.094;-1.690;2023-03-12T11:26:02;100888.63;;;19.77;50.61
27613;BME280;15036;48.094;-1.690;2023-03-12T11:28:37;100885.59;;;19.57;50.91
27613;BME280;15036;48.094;-1.690;2023-03-12T11:31:07;100887.59;;;19.83;50.75
27613;BME280;15036;48.094;-1.690;2023-03-12T11:33:35;100891.03;;;19.90;50.34
27613;BME280;15036;48.094;-1.690;2023-03-12T11:41:35;100887.97;;;20.56;49.29
27613;BME280;15036;48.094;-1.690;2023-03-12T11:46:58;100887.84;;;20.20;49.44
27613;BME280;15036;48.094;-1.690;2023-03-12T11:52:30;100874.91;;;19.65;50.07
27613;BME280;15036;48.094;-1.690;2023-03-12T11:58:32;100869.03;;;19.62;50.53
27613;BME280;15036;48.094;-1.690;2023-03-12T12:01:11;100857.97;;;19.62;50.51
27613;BME280;15036;48.094;-1.690;2023-03-12T12:09:27;100842.72;;;19.10;49.71
27613;BME280;15036;48.094;-1.690;2023-03-12T12:25:24;100835.63;;;19.90;48.91
27613;BME280;15036;48.094;-1.690;2023-03-12T12:30:54;100822.22;;;19.60;49.50
27613;BME280;15036;48.094;-1.690;2023-03-12T12:33:39;100807.84;;;19.63;48.81
27613;BME280;15036;48.094;-1.690;2023-03-12T12:36:09;100816.97;;;20.07;48.54
27613;BME280;15036;48.094;-1.690;2023-03-12T12:38:42;100818.53;;;19.98;48.90
27613;BME280;15036;48.094;-1.690;2023-03-12T12:41:17;100810.97;;;20.15;48.98
27613;BME280;15036;48.094;-1.690;2023-03-12T12:43:48;100817.06;;;19.91;49.62
27613;BME280;15036;48.094;-1.690;2023-03-12T12:46:20;100817.81;;;19.10;51.77
27613;BME280;15036;48.094;-1.690;2023-03-12T12:51:59;100797.56;;;19.80;50.63
27613;BME280;15036;48.094;-1.690;2023-03-12T12:57:19;100799.81;;;18.90;53.21
27613;BME280;15036;48.094;-1.690;2023-03-12T13:02:49;100780.78;;;19.11;53.34
27613;BME280;15036;48.094;-1.690;2023-03-12T13:05:25;100775.25;;;19.11;53.19
27613;BME280;15036;48.094;-1.690;2023-03-12T13:07:50;100766.47;;;19.35;52.72
27613;BME280;15036;48.094;-1.690;2023-03-12T13:12:59;100757.41;;;20.36;50.82
27613;BME280;15036;48.094;-1.690;2023-03-12T13:23:58;100752.44;;;19.63;52.19
27613;BME280;15036;48.094;-1.690;2023-03-12T13:26:45;100750.66;;;19.74;51.92
27613;BME280;15036;48.094;-1.690;2023-03-12T13:31:48;100733.84;;;18.99;53.98
27613;BME280;15036;48.094;-1.690;2023-03-12T13:36:39;100723.38;;;19.23;53.82
27613;BME280;15036;48.094;-1.690;2023-03-12T13:41:37;100710.22;;;20.05;52.33
27613;BME280;15036;48.094;-1.690;2023-03-12T13:50:05;100695.97;;;20.18;52.17
27613;BME280;15036;48.094;-1.690;2023-03-12T13:52:40;100687.53;;;19.81;52.42
27613;BME280;15036;48.094;-1.690;2023-03-12T13:57:46;100692.41;;;19.69;52.67
27613;BME280;15036;48.094;-1.690;2023-03-12T14:05:34;100682.19;;;19.48;53.07
27613;BME280;15036;48.094;-1.690;2023-03-12T14:13:38;100677.81;;;19.52;53.57
27613;BME280;15036;48.094;-1.690;2023-03-12T14:16:21;100666.19;;;19.76;53.06
27613;BME280;15036;48.094;-1.690;2023-03-12T14:18:50;100657.72;;;18.96;54.79
27613;BME280;15036;48.094;-1.690;2023-03-12T14:21:19;100645.22;;;19.16;54.46
27613;BME280;15036;48.094;-1.690;2023-03-12T14:23:55;100633.91;;;18.95;54.96
27613;BME280;15036;48.094;-1.690;2023-03-12T14:26:28;100635.25;;;19.15;54.45
27613;BME280;15036;48.094;-1.690;2023-03-12T14:29:03;100629.19;;;19.61;53.49
27613;BME280;15036;48.094;-1.690;2023-03-12T14:31:31;100634.59;;;18.86;55.42
27613;BME280;15036;48.094;-1.690;2023-03-12T14:34:07;100618.78;;;19.46;54.14